Airfield :
LOGIN :

Register | Disclaimer

   EN    FR    IT 

 










Legend :    VFR   Marginal VFR   IFR   Intensive IFR   Very Intensive IFR
Visi :
Ceiling :
>= 8 km
>= 3000ft
5 to 8 km
1000 to 3000 ft
1500m to 5 km
500 to 1000 ft
800 to 1500m
200 to 500 ft
< 800m
< 200 ft
Symbols :   Thunderstorms  Fog  Heavy snow  Heavy precipitations  Wind > 20 kt
SIGMETs :     Misc.  Thunderstorms  Icing  Turbulence  Mountain Waves  Volcanic Ashes







- Airport Elevation : 7 ft
- IATA code : POW


LJPZ - Portoroz

CURRENT METAR :
  • 221300Z 08007KT 030V120 9999 FEW050 22/11 Q1014

EXPIRED METARs :
  • 221230Z 10008KT 9999 FEW050 SCT120 20/12 Q1015
  • 221200Z 08007KT 040V110 9999 FEW050 SCT070 BKN090 19/12 Q1015
  • 221130Z 09007KT 060V130 9999 BKN060 19/12 Q1015
  • 221100Z 07008KT 040V100 9999 BKN060 19/11 Q1015
  • 221030Z 07007KT 030V100 9999 BKN060 18/12 Q1015

TAF TAF LJPZ
Valid from the 22 at 12:00 until the 22 at 21:00 UTC


221100Z 2212/2221 07008KT 9999 BKN060
TEMPO 2212/2215 06012G22KT
BECMG 2212/2214 FEW050
No reported NOTAMs for that airfield.



MET'MAP, your aeronautical weather chart ! - Copyright ORBIFLY December 2007 - Disclaimer

ORBIFLY MET'MAP TEAM :

Programming & Development : Alexandra Zaïnal
Concept & Development : Baudouin d'Aumeries
Co-Development & Prog : Marc-Olivier Méhu
Technical & hardware support : Manuel Goepfert

Contact : metmap@orbifly.com




SOURCES & CREDITS :

   NOAA